createdAt,value
2022-10-01T00:00:09.038Z,386.65
2022-10-01T00:03:01.337Z,389.42
2022-10-01T00:05:32.924Z,392.17
2022-10-01T00:08:04.626Z,394.75
2022-10-01T00:10:37.011Z,388.38
2022-10-01T00:13:08.223Z,389.05
2022-10-01T00:15:44.833Z,390.63
2022-10-01T00:18:16.093Z,392.45
2022-10-01T00:20:48.422Z,388.53
2022-10-01T00:23:19.988Z,393.58
2022-10-01T00:25:52.391Z,406.05
2022-10-01T00:28:23.610Z,374.45
2022-10-01T00:30:57.828Z,387.75
2022-10-01T00:33:29.474Z,392.50
2022-10-01T00:36:00.897Z,392.80
2022-10-01T00:38:32.134Z,399.08
2022-10-01T00:41:03.771Z,385.87
2022-10-01T00:43:37.841Z,395.33
2022-10-01T00:46:18.908Z,382.70
2022-10-01T00:48:58.377Z,388.58
2022-10-01T00:51:34.956Z,393.65
2022-10-01T00:54:12.630Z,395.58
2022-10-01T00:56:44.653Z,400.95
2022-10-01T00:59:18.442Z,388.85
2022-10-01T01:01:52.639Z,383.52
2022-10-01T01:04:24.000Z,397.73
2022-10-01T01:06:59.476Z,391.92
2022-10-01T01:09:33.664Z,385.92
2022-10-01T01:12:11.918Z,382.98
2022-10-01T01:14:48.968Z,387.05
2022-10-01T01:17:30.474Z,390.83
2022-10-01T01:20:16.714Z,387.65
2022-10-01T01:22:59.486Z,375.50
2022-10-01T01:25:39.534Z,385.48
2022-10-01T01:28:25.466Z,387.65
2022-10-01T01:30:59.951Z,389.88
2022-10-01T01:33:34.986Z,388.88
2022-10-01T01:36:10.741Z,387.77
2022-10-01T01:38:46.058Z,374.83
2022-10-01T01:41:19.052Z,383.77
2022-10-01T01:43:56.867Z,387.40
2022-10-01T01:46:33.407Z,383.30
2022-10-01T01:49:05.820Z,391.08
2022-10-01T01:51:43.365Z,387.17
2022-10-01T01:54:15.205Z,377.92
2022-10-01T01:56:46.498Z,386.08
2022-10-01T01:59:21.524Z,386.23
2022-10-01T02:01:52.780Z,372.33
2022-10-01T02:04:28.326Z,379.33
2022-10-01T02:07:29.404Z,382.35
2022-10-01T02:10:12.074Z,368.13
2022-10-01T02:12:53.948Z,369.92
2022-10-01T02:15:37.211Z,377.30
2022-10-01T02:18:16.805Z,365.10
2022-10-01T02:20:52.961Z,367.67
2022-10-01T02:23:30.385Z,366.13
2022-10-01T02:26:06.889Z,381.30
2022-10-01T02:28:40.702Z,361.88
2022-10-01T02:31:18.038Z,369.05
2022-10-01T02:33:50.047Z,380.35
2022-10-01T02:36:23.986Z,365.63
2022-10-01T02:38:58.493Z,382.73
2022-10-01T02:41:36.983Z,364.58
2022-10-01T02:44:13.377Z,370.95
2022-10-01T02:46:52.861Z,378.95
2022-10-01T02:49:28.572Z,378.25
2022-10-01T02:52:05.466Z,373.08
2022-10-01T02:54:41.445Z,381.27
2022-10-01T02:57:27.566Z,378.58
2022-10-01T03:00:01.138Z,376.60
2022-10-01T03:02:35.668Z,382.92
2022-10-01T03:05:07.565Z,373.60
2022-10-01T03:07:41.011Z,362.83
2022-10-01T03:10:16.297Z,373.35
2022-10-01T03:12:49.185Z,374.80
2022-10-01T03:15:22.119Z,370.02
2022-10-01T03:17:57.780Z,365.08
2022-10-01T03:20:29.291Z,369.40
2022-10-01T03:23:00.786Z,365.90
2022-10-01T03:25:32.102Z,367.85
2022-10-01T03:28:04.267Z,373.67
2022-10-01T03:30:35.794Z,375.80
2022-10-01T03:33:09.918Z,374.27
2022-10-01T03:35:41.089Z,368.85
2022-10-01T03:38:13.921Z,375.67
2022-10-01T03:40:45.045Z,372.20
2022-10-01T03:43:16.489Z,362.90
2022-10-01T03:45:47.726Z,368.52
2022-10-01T03:48:21.865Z,359.83
2022-10-01T03:50:57.549Z,354.88
2022-10-01T03:53:30.525Z,361.10
2022-10-01T03:56:02.622Z,359.17
2022-10-01T04:01:05.171Z,352.67
2022-10-01T04:03:39.230Z,364.08
2022-10-01T04:06:10.525Z,358.40
2022-10-01T04:08:42.089Z,360.80
2022-10-01T04:11:13.982Z,355.90
2022-10-01T04:13:45.355Z,357.25
2022-10-01T04:16:16.534Z,365.00
2022-10-01T04:18:50.649Z,365.88
2022-10-01T04:21:22.022Z,357.25
2022-10-01T04:23:53.496Z,364.90
2022-10-01T04:26:25.418Z,352.00
2022-10-01T04:28:56.939Z,362.85
2022-10-01T04:31:28.343Z,349.20
2022-10-01T04:34:02.407Z,348.85
2022-10-01T04:36:33.914Z,348.55
2022-10-01T04:39:05.384Z,351.27
2022-10-01T04:41:36.866Z,339.42
2022-10-01T04:44:08.962Z,357.27
2022-10-01T04:46:40.207Z,345.67
2022-10-01T04:49:14.296Z,346.13
2022-10-01T04:51:45.819Z,349.10
2022-10-01T04:54:17.268Z,336.95
2022-10-01T04:56:48.414Z,338.02
2022-10-01T04:59:20.004Z,343.43
2022-10-01T05:01:51.177Z,340.25
2022-10-01T05:04:25.235Z,338.90
2022-10-01T05:06:56.536Z,339.08
2022-10-01T05:09:28.032Z,342.98
2022-10-01T05:11:59.335Z,341.33
2022-10-01T05:14:31.470Z,337.37
2022-10-01T05:17:02.691Z,335.52
2022-10-01T05:19:36.817Z,338.93
2022-10-01T05:22:07.980Z,345.65
2022-10-01T05:24:39.890Z,346.10
2022-10-01T05:27:14.348Z,339.70
2022-10-01T05:29:46.069Z,347.35
2022-10-01T05:32:17.309Z,349.20
2022-10-01T05:34:53.740Z,342.60
2022-10-01T05:37:25.058Z,356.63
2022-10-01T05:39:56.455Z,351.27
2022-10-01T05:42:27.702Z,354.52
2022-10-01T05:44:59.337Z,350.30
2022-10-01T05:47:30.541Z,354.08
2022-10-01T05:50:04.704Z,359.80
2022-10-01T05:52:35.920Z,356.95
2022-10-01T05:55:08.349Z,375.17
2022-10-01T05:57:39.682Z,372.25
2022-10-01T06:00:13.116Z,354.73
2022-10-01T06:02:44.516Z,366.48
2022-10-01T06:05:18.898Z,374.42
2022-10-01T06:07:50.145Z,374.92
2022-10-01T06:10:21.614Z,371.93
2022-10-01T06:12:53.380Z,357.48
2022-10-01T06:15:24.860Z,368.13
2022-10-01T06:17:56.285Z,356.05
2022-10-01T06:20:30.303Z,364.85
2022-10-01T06:23:01.710Z,366.40
2022-10-01T06:25:33.271Z,355.70
2022-10-01T06:28:06.120Z,364.00
2022-10-01T06:30:39.595Z,355.35
2022-10-01T06:33:12.560Z,370.23
2022-10-01T06:35:48.609Z,376.48
2022-10-01T06:38:21.445Z,376.33
2022-10-01T06:40:57.141Z,373.60
2022-10-01T06:43:31.209Z,363.75
2022-10-01T06:46:05.440Z,376.25
2022-10-01T06:48:37.021Z,373.67
2022-10-01T06:51:11.496Z,378.13
2022-10-01T06:53:40.189Z,378.25
2022-10-01T06:56:11.736Z,382.98
2022-10-01T06:58:43.493Z,378.90
2022-10-01T07:01:17.122Z,371.98
2022-10-01T07:03:48.416Z,364.73
2022-10-01T07:06:23.237Z,380.27
2022-10-01T07:08:54.527Z,376.00
2022-10-01T07:11:27.249Z,380.48
2022-10-01T07:14:01.626Z,387.48
2022-10-01T07:16:33.139Z,389.88
2022-10-01T07:19:04.580Z,395.92
2022-10-01T07:21:38.670Z,393.05
2022-10-01T07:24:10.021Z,383.05
2022-10-01T07:26:41.529Z,394.05
2022-10-01T07:29:12.746Z,389.38
2022-10-01T07:31:44.414Z,389.65
2022-10-01T07:34:15.616Z,384.42
2022-10-01T07:36:51.774Z,395.10
2022-10-01T07:39:23.092Z,391.40
2022-10-01T07:41:54.739Z,390.58
2022-10-01T07:44:26.735Z,392.45
2022-10-01T07:49:29.447Z,380.95
2022-10-01T07:52:04.601Z,384.95
2022-10-01T07:54:36.010Z,383.08
2022-10-01T07:57:07.407Z,392.10
2022-10-01T07:59:41.115Z,391.27
2022-10-01T08:02:19.181Z,388.17
2022-10-01T08:05:02.599Z,392.58
2022-10-01T08:07:36.990Z,404.02
2022-10-01T08:10:09.267Z,396.63
2022-10-01T08:12:42.832Z,410.63
2022-10-01T08:15:15.471Z,405.70
2022-10-01T08:17:47.803Z,410.80
2022-10-01T08:20:19.760Z,421.85
2022-10-01T08:22:54.313Z,406.98
2022-10-01T08:25:26.183Z,434.98
2022-10-01T08:30:29.101Z,398.05
2022-10-01T08:33:01.497Z,406.90
2022-10-01T08:35:33.567Z,409.73
2022-10-01T08:38:09.978Z,410.90
2022-10-01T08:40:47.921Z,410.95
2022-10-01T08:43:33.669Z,412.35
2022-10-01T08:46:07.539Z,394.27
2022-10-01T08:48:54.809Z,410.85
2022-10-01T08:51:34.523Z,399.58
2022-10-01T08:54:18.919Z,415.08
2022-10-01T08:56:50.815Z,402.70
2022-10-01T08:59:35.370Z,406.50
2022-10-01T09:02:20.134Z,416.10
2022-10-01T09:04:58.894Z,425.27
2022-10-01T09:07:44.967Z,422.23
2022-10-01T09:10:42.335Z,417.52
2022-10-01T09:13:50.246Z,426.17
2022-10-01T09:16:28.477Z,411.00
2022-10-01T09:19:14.382Z,421.13
2022-10-01T09:21:59.095Z,409.25
2022-10-01T09:24:43.448Z,422.60
2022-10-01T09:27:20.590Z,435.85
2022-10-01T09:29:55.324Z,431.60
2022-10-01T09:35:54.925Z,423.77
2022-10-01T09:38:32.118Z,431.58
2022-10-01T09:41:05.150Z,437.15
2022-10-01T09:46:17.400Z,419.80
2022-10-01T09:48:57.608Z,424.30
2022-10-01T09:51:38.089Z,442.52
2022-10-01T09:54:19.576Z,454.40
2022-10-01T09:56:56.211Z,441.52
2022-10-01T09:59:34.296Z,426.00
2022-10-01T10:02:11.016Z,446.08
2022-10-01T10:04:42.719Z,439.88
2022-10-01T10:07:20.563Z,437.38
2022-10-01T10:09:51.993Z,444.42
2022-10-01T10:12:31.765Z,440.27
2022-10-01T10:15:11.622Z,448.58
2022-10-01T10:17:46.469Z,444.45
2022-10-01T10:20:27.731Z,458.65
2022-10-01T10:23:09.934Z,451.98
2022-10-01T10:28:23.896Z,436.15
2022-10-01T10:31:00.362Z,438.83
2022-10-01T10:33:31.711Z,443.13
2022-10-01T10:36:06.051Z,448.65
2022-10-01T10:38:38.148Z,446.08
2022-10-01T10:41:19.917Z,437.50
2022-10-01T10:43:52.051Z,445.73
2022-10-01T10:46:32.802Z,464.83
2022-10-01T10:49:11.629Z,446.20
2022-10-01T10:51:49.498Z,441.75
2022-10-01T10:54:27.049Z,458.27
2022-10-01T10:57:02.599Z,447.63
2022-10-01T10:59:35.544Z,452.10
2022-10-01T11:02:19.614Z,448.67
2022-10-01T11:04:50.810Z,441.33
2022-10-01T11:07:24.528Z,442.58
2022-10-01T11:10:28.404Z,468.88
2022-10-01T11:13:22.282Z,450.33
2022-10-01T11:16:21.734Z,455.35
2022-10-01T11:19:20.472Z,461.63
2022-10-01T11:22:05.079Z,453.75
2022-10-01T11:25:03.935Z,455.27
2022-10-01T11:27:43.868Z,446.48
2022-10-01T11:30:22.863Z,455.35
2022-10-01T11:33:06.632Z,454.13
2022-10-01T11:35:50.353Z,457.27
2022-10-01T11:38:43.523Z,465.35
2022-10-01T11:41:27.806Z,462.60
2022-10-01T11:44:02.281Z,468.75
2022-10-01T11:46:56.534Z,468.45
2022-10-01T11:50:00.123Z,472.30
2022-10-01T11:52:59.605Z,460.73
2022-10-01T11:55:49.366Z,473.40
2022-10-01T11:58:42.501Z,462.85
2022-10-01T12:01:22.281Z,450.90
2022-10-01T12:04:17.724Z,472.42
2022-10-01T12:06:58.197Z,454.58
2022-10-01T12:09:39.154Z,464.15
2022-10-01T12:12:15.624Z,458.17
2022-10-01T12:14:57.167Z,473.77
2022-10-01T12:17:35.480Z,473.42
2022-10-01T12:20:16.894Z,481.38
2022-10-01T12:22:50.019Z,463.67
2022-10-01T12:25:29.392Z,472.58
2022-10-01T12:28:07.920Z,477.00
2022-10-01T12:30:48.874Z,455.25
2022-10-01T12:33:40.258Z,460.23
2022-10-01T12:36:21.068Z,470.80
2022-10-01T12:39:06.859Z,475.33
2022-10-01T12:41:52.518Z,473.65
2022-10-01T12:44:50.598Z,465.75
2022-10-01T12:47:36.479Z,479.02
2022-10-01T12:50:24.090Z,476.08
2022-10-01T12:53:08.158Z,455.55
2022-10-01T12:56:07.345Z,481.88
2022-10-01T12:59:06.541Z,469.38
2022-10-01T13:01:46.703Z,470.42
2022-10-01T13:04:45.450Z,483.58
2022-10-01T13:07:29.859Z,464.27
2022-10-01T13:10:12.512Z,480.63
2022-10-01T13:15:28.009Z,466.30
2022-10-01T13:18:05.278Z,456.23
2022-10-01T13:21:05.860Z,472.20
2022-10-01T13:23:43.948Z,470.05
2022-10-01T13:26:21.024Z,484.85
2022-10-01T13:51:42.441Z,461.67
2022-10-01T13:54:30.348Z,474.17
2022-10-01T13:57:11.087Z,464.80
2022-10-01T14:00:04.335Z,470.23
2022-10-01T14:02:40.062Z,470.15
2022-10-01T14:05:30.989Z,487.98
2022-10-01T14:08:31.886Z,479.98
2022-10-01T14:11:20.112Z,469.33
2022-10-01T14:14:06.671Z,459.25
2022-10-01T14:16:42.897Z,457.80
2022-10-01T14:19:25.162Z,460.60
2022-10-01T14:22:05.696Z,464.50
2022-10-01T14:25:12.794Z,452.80
2022-10-01T14:27:50.182Z,454.08
2022-10-01T14:30:27.538Z,468.73
2022-10-01T14:33:19.745Z,462.60
2022-10-01T14:36:00.625Z,456.50
2022-10-01T14:38:34.629Z,467.90
2022-10-01T14:41:08.714Z,472.17
2022-10-01T14:43:43.057Z,473.52
2022-10-01T14:46:18.486Z,475.92
2022-10-01T14:49:01.251Z,460.85
2022-10-01T14:51:34.209Z,470.83
2022-10-01T14:54:06.270Z,477.70
2022-10-01T14:56:45.367Z,478.73
2022-10-01T14:59:23.780Z,474.40
2022-10-01T15:02:01.282Z,471.50
2022-10-01T15:04:34.783Z,476.02
2022-10-01T15:07:17.399Z,475.75
2022-10-01T15:09:49.443Z,474.20
2022-10-01T15:12:25.830Z,477.50
2022-10-01T15:14:57.617Z,472.25
2022-10-01T15:17:30.817Z,463.53
2022-10-01T15:20:02.607Z,459.33
2022-10-01T15:22:36.090Z,467.70
2022-10-01T15:25:09.245Z,470.98
2022-10-01T15:27:44.492Z,476.33
2022-10-01T15:30:19.637Z,477.15
2022-10-01T15:32:52.898Z,483.02
2022-10-01T15:35:27.264Z,489.83
2022-10-01T15:38:20.547Z,463.40
2022-10-01T15:41:13.915Z,465.80
2022-10-01T15:43:53.681Z,460.38
2022-10-01T15:46:46.659Z,466.45
2022-10-01T15:49:23.570Z,466.65
2022-10-01T15:52:12.111Z,475.05
2022-10-01T15:54:45.993Z,472.45
2022-10-01T15:57:23.137Z,472.23
2022-10-01T15:59:59.673Z,466.50
2022-10-01T16:02:34.835Z,468.15
2022-10-01T16:05:09.240Z,452.80
2022-10-01T16:07:40.767Z,474.27
2022-10-01T16:10:29.259Z,457.55
2022-10-01T16:13:01.355Z,474.95
2022-10-01T16:15:35.178Z,455.42
2022-10-01T16:18:24.072Z,468.38
2022-10-01T16:21:00.088Z,471.55
2022-10-01T16:23:44.886Z,466.73
2022-10-01T16:26:32.709Z,460.30
2022-10-01T16:29:07.474Z,458.33
2022-10-01T16:31:46.442Z,456.10
2022-10-01T16:34:22.487Z,456.08
2022-10-01T16:37:16.291Z,452.75
2022-10-01T16:39:49.567Z,444.80
2022-10-01T16:42:26.226Z,461.52
2022-10-01T16:44:58.320Z,456.60
2022-10-01T16:47:32.541Z,461.92
2022-10-01T16:50:04.357Z,458.42
2022-10-01T16:52:36.550Z,454.67
2022-10-01T16:55:18.445Z,447.00
2022-10-01T16:57:50.157Z,456.70
2022-10-01T17:00:24.395Z,441.60
2022-10-01T17:02:59.841Z,456.45
2022-10-01T17:05:33.405Z,458.95
2022-10-01T17:08:11.416Z,454.20
2022-10-01T17:10:46.240Z,446.92
2022-10-01T17:13:20.634Z,449.08
2022-10-01T17:15:53.404Z,455.17
2022-10-01T17:18:27.353Z,451.63
2022-10-01T17:20:59.732Z,453.20
2022-10-01T17:23:31.509Z,456.13
2022-10-01T17:26:03.617Z,443.63
2022-10-01T17:28:54.968Z,437.80
2022-10-01T17:31:31.429Z,449.20
2022-10-01T17:34:05.748Z,465.00
2022-10-01T17:36:47.548Z,453.40
2022-10-01T17:39:39.028Z,451.27
2022-10-01T17:42:11.757Z,460.67
2022-10-01T17:47:18.012Z,437.13
2022-10-01T17:49:51.845Z,447.85
2022-10-01T17:52:25.891Z,439.08
2022-10-01T17:54:57.701Z,450.20
2022-10-01T17:57:49.763Z,446.15
2022-10-01T18:00:22.097Z,450.67
2022-10-01T18:03:36.348Z,432.85
2022-10-01T18:06:13.843Z,441.85
2022-10-01T18:09:07.274Z,445.90
2022-10-01T18:11:39.794Z,435.02
2022-10-01T18:14:11.804Z,445.50
2022-10-01T18:16:43.536Z,442.42
2022-10-01T18:22:14.328Z,435.58
2022-10-01T18:24:46.004Z,416.70
2022-10-01T18:27:18.107Z,429.77
2022-10-01T18:29:52.865Z,431.65
2022-10-01T18:32:28.667Z,432.52
2022-10-01T18:35:28.270Z,422.58
2022-10-01T18:38:08.127Z,426.98
2022-10-01T18:40:47.195Z,423.33
2022-10-01T18:43:41.243Z,425.67
2022-10-01T18:46:24.288Z,402.40
2022-10-01T18:49:16.427Z,414.25
2022-10-01T18:52:19.746Z,395.73
2022-10-01T18:57:58.576Z,379.63
2022-10-01T19:00:38.873Z,384.50
2022-10-01T19:03:34.930Z,387.33
2022-10-01T19:06:43.419Z,388.33
2022-10-01T19:09:28.943Z,401.70
2022-10-01T19:12:15.561Z,392.48
2022-10-01T19:15:01.139Z,395.67
2022-10-01T19:17:46.345Z,394.45
2022-10-01T19:20:31.866Z,398.75
2022-10-01T19:23:42.046Z,389.08
2022-10-01T19:26:19.984Z,388.77
2022-10-01T19:29:04.767Z,385.10
2022-10-01T19:31:46.741Z,391.33
2022-10-01T19:34:24.887Z,390.60
2022-10-01T19:37:10.170Z,399.58
2022-10-01T19:39:44.050Z,396.20
2022-10-01T19:42:21.688Z,388.92
2022-10-01T19:45:11.209Z,387.88
2022-10-01T19:47:54.152Z,380.80
2022-10-01T19:53:27.959Z,364.88
2022-10-01T19:56:03.880Z,380.60
2022-10-01T19:58:36.434Z,382.30
2022-10-01T20:01:34.480Z,380.23
2022-10-01T20:04:17.771Z,382.65
2022-10-01T20:06:52.315Z,377.10
2022-10-01T20:09:30.578Z,382.77
2022-10-01T20:12:30.143Z,364.15
2022-10-01T20:15:26.959Z,371.35
2022-10-01T20:18:13.461Z,381.15
2022-10-01T20:21:01.529Z,370.25
2022-10-01T20:23:45.033Z,378.52
2022-10-01T20:26:26.378Z,369.80
2022-10-01T20:29:27.726Z,367.13
2022-10-01T20:32:06.871Z,368.13
2022-10-01T20:34:47.049Z,363.20
2022-10-01T20:37:37.808Z,372.60
2022-10-01T20:40:18.746Z,361.63
